createdAt,value
2024-02-19T00:00:25.963Z,51.45
2024-02-19T00:03:29.402Z,51.57
2024-02-19T00:06:32.640Z,51.52
2024-02-19T00:09:35.542Z,51.48
2024-02-19T00:12:39.792Z,51.50
2024-02-19T00:15:42.692Z,51.44
2024-02-19T00:18:45.614Z,51.46
2024-02-19T00:21:48.535Z,51.39
2024-02-19T00:24:51.435Z,51.41
2024-02-19T00:27:55.681Z,51.39
2024-02-19T00:30:58.533Z,51.45
2024-02-19T00:34:01.491Z,51.58
2024-02-19T00:37:05.723Z,51.52
2024-02-19T00:40:10.007Z,51.67
2024-02-19T00:43:14.453Z,51.47
2024-02-19T00:46:17.758Z,51.54
2024-02-19T00:49:20.666Z,51.58
2024-02-19T00:52:23.549Z,51.56
2024-02-19T00:55:26.363Z,51.63
2024-02-19T00:58:30.641Z,51.55
2024-02-19T01:01:33.561Z,51.66
2024-02-19T01:04:36.745Z,51.53
2024-02-19T01:07:39.708Z,51.65
2024-02-19T01:10:42.708Z,51.57
2024-02-19T01:13:46.895Z,51.60
2024-02-19T01:16:49.741Z,51.48
2024-02-19T01:19:53.765Z,51.64
2024-02-19T01:22:56.767Z,51.60
2024-02-19T01:25:59.548Z,51.69
2024-02-19T01:29:03.680Z,51.51
2024-02-19T01:32:06.993Z,51.67
2024-02-19T01:35:10.616Z,51.58
2024-02-19T01:38:13.818Z,51.49
2024-02-19T01:41:17.676Z,51.57
2024-02-19T01:44:21.926Z,51.67
2024-02-19T01:47:24.844Z,51.56
2024-02-19T01:50:30.961Z,51.69
2024-02-19T01:53:33.807Z,51.59
2024-02-19T01:56:37.400Z,51.65
2024-02-19T01:59:42.162Z,51.60
2024-02-19T02:02:45.161Z,51.69
2024-02-19T02:05:48.994Z,51.66
2024-02-19T02:08:52.669Z,51.75
2024-02-19T02:11:55.551Z,51.66
2024-02-19T02:14:59.712Z,51.70
2024-02-19T02:18:02.576Z,51.64
2024-02-19T02:21:05.908Z,51.76
2024-02-19T02:24:08.739Z,51.67
2024-02-19T02:27:12.881Z,51.68
2024-02-19T02:30:16.112Z,51.57
2024-02-19T02:33:19.507Z,51.71
2024-02-19T02:36:22.365Z,51.70
2024-02-19T02:39:25.583Z,51.58
2024-02-19T02:42:29.711Z,51.60
2024-02-19T02:45:32.732Z,51.66
2024-02-19T02:48:35.697Z,51.62
2024-02-19T02:51:38.953Z,51.56
2024-02-19T02:54:41.768Z,51.69
2024-02-19T02:57:45.961Z,51.62
2024-02-19T03:00:49.354Z,51.73
2024-02-19T03:03:52.358Z,51.64
2024-02-19T03:06:55.264Z,51.67
2024-02-19T03:09:58.423Z,51.67
2024-02-19T03:13:03.906Z,51.64
2024-02-19T03:16:07.604Z,51.62
2024-02-19T03:19:12.010Z,51.61
2024-02-19T03:22:15.306Z,51.65
2024-02-19T03:25:19.972Z,51.75
2024-02-19T03:28:24.899Z,51.62
2024-02-19T03:31:27.764Z,51.64
2024-02-19T03:34:30.612Z,51.59
2024-02-19T03:37:33.505Z,51.66
2024-02-19T03:40:36.279Z,51.67
2024-02-19T03:43:40.475Z,51.60
2024-02-19T03:46:43.313Z,51.57
2024-02-19T03:49:46.385Z,51.52
2024-02-19T03:52:49.213Z,51.53
2024-02-19T03:55:52.066Z,51.73
2024-02-19T03:58:56.201Z,51.50
2024-02-19T04:01:59.054Z,51.41
2024-02-19T04:05:01.954Z,51.61
2024-02-19T04:08:07.296Z,51.61
2024-02-19T04:11:11.708Z,51.70
2024-02-19T04:14:15.907Z,51.61
2024-02-19T04:17:18.704Z,51.57
2024-02-19T04:20:21.669Z,51.62
2024-02-19T04:23:24.462Z,51.50
2024-02-19T04:26:27.263Z,51.43
2024-02-19T04:29:31.399Z,51.46
2024-02-19T04:32:34.412Z,51.56
2024-02-19T04:35:37.270Z,51.47
2024-02-19T04:38:40.083Z,51.56
2024-02-19T04:41:42.861Z,51.36
2024-02-19T04:44:48.145Z,51.38
2024-02-19T04:47:50.995Z,51.42
2024-02-19T04:50:53.806Z,51.49
2024-02-19T04:53:56.617Z,51.38
2024-02-19T04:56:59.441Z,51.46
2024-02-19T05:00:04.302Z,51.39
2024-02-19T05:03:07.155Z,51.40
2024-02-19T05:06:10.007Z,51.30
2024-02-19T05:09:13.031Z,51.44
2024-02-19T05:12:15.816Z,51.44
2024-02-19T05:15:19.992Z,51.34
2024-02-19T05:18:22.790Z,51.24
2024-02-19T05:21:25.738Z,51.36
2024-02-19T05:24:28.537Z,51.25
2024-02-19T05:27:31.417Z,51.35
2024-02-19T05:30:35.599Z,51.46
2024-02-19T05:33:38.454Z,51.32
2024-02-19T05:36:41.340Z,51.45
2024-02-19T05:39:44.572Z,51.38
2024-02-19T05:42:47.701Z,51.45
2024-02-19T05:45:54.196Z,51.39
2024-02-19T05:48:57.167Z,51.39
2024-02-19T05:51:59.971Z,51.40
2024-02-19T05:55:05.128Z,51.31
2024-02-19T05:58:08.000Z,51.34
2024-02-19T06:01:12.431Z,51.32
2024-02-19T06:04:15.425Z,51.38
2024-02-19T06:07:18.357Z,51.40
2024-02-19T06:10:21.224Z,51.28
2024-02-19T06:13:26.170Z,51.31
2024-02-19T06:16:30.628Z,51.30
2024-02-19T06:19:33.561Z,51.40
2024-02-19T06:22:36.418Z,51.32
2024-02-19T06:25:39.198Z,51.37
2024-02-19T06:28:41.999Z,51.29
2024-02-19T06:31:48.959Z,51.28
2024-02-19T06:34:51.960Z,51.42
2024-02-19T06:37:54.788Z,51.38
2024-02-19T06:40:58.118Z,51.49
2024-02-19T06:44:01.058Z,51.39
2024-02-19T06:47:05.904Z,51.46
2024-02-19T06:50:09.250Z,51.41
2024-02-19T06:53:12.211Z,51.48
2024-02-19T06:56:14.946Z,51.52
2024-02-19T06:59:17.723Z,51.38
2024-02-19T07:02:22.592Z,51.40
2024-02-19T07:05:25.934Z,51.32
2024-02-19T07:08:28.839Z,51.38
2024-02-19T07:11:31.746Z,51.34
2024-02-19T07:14:34.573Z,51.42
2024-02-19T07:17:38.803Z,51.34
2024-02-19T07:20:41.692Z,51.31
2024-02-19T07:23:44.562Z,51.40
2024-02-19T07:26:47.404Z,51.36
2024-02-19T07:29:51.506Z,51.37
2024-02-19T07:32:55.727Z,51.52
2024-02-19T07:35:58.522Z,51.34
2024-02-19T07:39:01.280Z,51.42
2024-02-19T07:42:04.173Z,51.41
2024-02-19T07:45:08.303Z,51.44
2024-02-19T07:48:12.808Z,51.29
2024-02-19T07:51:16.182Z,51.33
2024-02-19T07:54:19.012Z,51.25
2024-02-19T07:57:21.784Z,51.30
2024-02-19T08:00:24.612Z,51.34
2024-02-19T08:03:28.863Z,51.39
2024-02-19T08:06:31.677Z,51.34
2024-02-19T08:09:34.482Z,51.25
2024-02-19T08:12:40.446Z,51.29
2024-02-19T08:15:46.683Z,51.29
2024-02-19T08:18:50.919Z,51.36
2024-02-19T08:21:54.706Z,51.38
2024-02-19T08:24:57.525Z,51.30
2024-02-19T08:28:00.669Z,51.25
2024-02-19T08:31:03.709Z,51.23
2024-02-19T08:34:08.796Z,51.23
2024-02-19T08:37:11.851Z,51.28
2024-02-19T08:40:14.830Z,51.25
2024-02-19T08:43:17.677Z,51.14
2024-02-19T08:46:20.614Z,51.17
2024-02-19T08:49:26.675Z,51.15
2024-02-19T08:52:30.731Z,51.18
2024-02-19T08:55:33.923Z,51.26
2024-02-19T08:58:36.894Z,51.22
2024-02-19T09:01:39.801Z,51.27
2024-02-19T09:04:44.809Z,51.28
2024-02-19T09:07:47.970Z,51.34
2024-02-19T09:10:50.759Z,51.29
2024-02-19T09:13:53.559Z,51.25
2024-02-19T09:16:57.078Z,51.13
2024-02-19T09:20:01.508Z,51.05
2024-02-19T09:23:04.491Z,51.16
2024-02-19T09:26:13.829Z,51.12
2024-02-19T09:29:17.702Z,50.99
2024-02-19T09:32:20.578Z,51.08
2024-02-19T09:35:25.121Z,51.16
2024-02-19T09:38:28.303Z,51.01
2024-02-19T09:41:32.029Z,51.08
2024-02-19T09:44:35.962Z,50.90
2024-02-19T09:47:45.153Z,50.92
2024-02-19T09:50:51.833Z,50.82
2024-02-19T09:53:56.317Z,50.86
2024-02-19T09:57:00.744Z,50.84
2024-02-19T10:00:07.678Z,50.81
2024-02-19T10:03:14.152Z,50.97
2024-02-19T10:06:22.261Z,50.91
2024-02-19T10:09:26.546Z,50.86
2024-02-19T10:12:30.529Z,50.77
2024-02-19T10:15:34.681Z,51.03
2024-02-19T10:18:39.632Z,51.00
2024-02-19T10:21:49.697Z,50.89
2024-02-19T10:24:53.830Z,50.95
2024-02-19T10:27:59.773Z,50.93
2024-02-19T10:31:03.836Z,50.92
2024-02-19T10:34:07.098Z,50.91
2024-02-19T10:37:11.527Z,50.89
2024-02-19T10:40:18.457Z,50.81
2024-02-19T10:43:21.867Z,50.80
2024-02-19T10:46:25.332Z,51.04
2024-02-19T10:49:28.533Z,50.99
2024-02-19T10:52:34.514Z,51.00
2024-02-19T10:55:49.588Z,51.22
2024-02-19T10:59:00.550Z,51.11
2024-02-19T11:02:10.214Z,51.24
2024-02-19T11:05:13.987Z,51.24
2024-02-19T11:08:22.286Z,51.24
2024-02-19T11:11:25.526Z,51.24
2024-02-19T11:14:30.538Z,51.26
2024-02-19T11:17:33.629Z,51.14
2024-02-19T11:20:36.611Z,51.21
2024-02-19T11:23:40.770Z,51.26
2024-02-19T11:26:43.837Z,51.41
2024-02-19T11:29:48.362Z,51.40
2024-02-19T11:33:01.126Z,51.46
2024-02-19T11:36:04.231Z,51.64
2024-02-19T11:39:08.851Z,51.58
2024-02-19T11:42:15.864Z,51.52
2024-02-19T11:45:20.272Z,51.22
2024-02-19T11:48:23.638Z,51.26
2024-02-19T11:51:27.101Z,51.30
2024-02-19T11:54:31.765Z,51.25
2024-02-19T11:57:35.280Z,51.35
2024-02-19T12:00:38.053Z,51.26
2024-02-19T12:03:42.930Z,51.36
2024-02-19T12:06:45.836Z,51.24
2024-02-19T12:09:50.141Z,51.26
2024-02-19T12:12:53.220Z,51.26
2024-02-19T12:15:56.104Z,51.27
2024-02-19T12:19:01.099Z,51.29
2024-02-19T12:22:04.415Z,51.39
2024-02-19T12:25:09.619Z,51.42
2024-02-19T12:28:12.467Z,51.36
2024-02-19T12:31:15.508Z,51.49
2024-02-19T12:34:18.417Z,51.61
2024-02-19T12:37:21.558Z,51.76
2024-02-19T12:40:25.893Z,51.89
2024-02-19T12:43:29.006Z,52.22
2024-02-19T12:46:31.884Z,52.01
2024-02-19T12:49:37.444Z,51.95
2024-02-19T12:52:42.107Z,52.11
2024-02-19T12:55:46.335Z,52.26
2024-02-19T12:58:49.120Z,52.35
2024-02-19T13:01:52.445Z,52.45
2024-02-19T13:04:55.415Z,52.56
2024-02-19T13:07:58.403Z,52.58
2024-02-19T13:11:02.595Z,52.67
2024-02-19T13:14:05.795Z,53.02
2024-02-19T13:17:13.832Z,53.33
2024-02-19T13:20:20.047Z,53.24
2024-02-19T13:23:23.115Z,53.20
2024-02-19T13:26:27.755Z,53.18
2024-02-19T13:29:30.816Z,52.98
2024-02-19T13:32:34.153Z,53.05
2024-02-19T13:35:38.955Z,53.02
2024-02-19T13:38:41.720Z,53.26
2024-02-19T13:41:45.851Z,53.25
2024-02-19T13:44:49.343Z,53.26
2024-02-19T13:47:59.990Z,53.21
2024-02-19T13:51:03.703Z,53.27
2024-02-19T13:54:07.928Z,53.32
2024-02-19T13:57:12.441Z,53.22
2024-02-19T14:00:16.680Z,53.28
2024-02-19T14:03:20.905Z,53.21
2024-02-19T14:06:23.822Z,53.17
2024-02-19T14:09:26.630Z,53.42
2024-02-19T14:12:30.805Z,53.24
2024-02-19T14:15:33.913Z,53.25
2024-02-19T14:18:37.009Z,53.22
2024-02-19T14:21:39.838Z,53.20
2024-02-19T14:24:42.800Z,53.22
2024-02-19T14:27:47.193Z,53.15
2024-02-19T14:30:50.025Z,53.22
2024-02-19T14:33:53.446Z,53.19
2024-02-19T14:36:56.779Z,53.19
2024-02-19T14:40:00.037Z,53.23
2024-02-19T14:43:05.530Z,53.17
2024-02-19T14:46:08.769Z,53.07
2024-02-19T14:49:12.468Z,53.14
2024-02-19T14:52:15.535Z,53.16
2024-02-19T14:55:19.503Z,53.27
2024-02-19T14:58:23.724Z,53.32
2024-02-19T15:01:27.159Z,53.32
2024-02-19T15:04:30.115Z,53.36
2024-02-19T15:07:33.074Z,53.30
2024-02-19T15:10:37.489Z,53.30
2024-02-19T15:13:41.931Z,53.28
2024-02-19T15:16:45.224Z,53.25
2024-02-19T15:19:48.458Z,53.35
2024-02-19T15:22:51.832Z,53.23
2024-02-19T15:25:55.060Z,53.24
2024-02-19T15:29:00.005Z,53.26
2024-02-19T15:32:03.337Z,53.23
2024-02-19T15:35:06.946Z,53.21
2024-02-19T15:38:13.272Z,53.13
2024-02-19T15:41:21.074Z,53.03
2024-02-19T15:44:25.218Z,53.12
2024-02-19T15:47:28.029Z,53.01
2024-02-19T15:50:31.100Z,52.99
2024-02-19T15:53:34.049Z,53.01
2024-02-19T15:56:38.075Z,53.02
2024-02-19T15:59:42.309Z,53.04
2024-02-19T16:02:45.088Z,52.96
2024-02-19T16:05:47.983Z,52.96
2024-02-19T16:08:50.815Z,52.97
2024-02-19T16:11:54.826Z,52.87
2024-02-19T16:14:59.021Z,52.88
2024-02-19T16:18:01.888Z,52.90
2024-02-19T16:21:06.024Z,52.72
2024-02-19T16:24:10.843Z,52.80
2024-02-19T16:27:13.664Z,52.76
2024-02-19T16:30:17.863Z,52.82
2024-02-19T16:33:20.702Z,52.77
2024-02-19T16:36:26.394Z,52.77
2024-02-19T16:39:29.222Z,52.68
2024-02-19T16:42:36.795Z,52.62
2024-02-19T16:45:41.089Z,52.69
2024-02-19T16:48:45.162Z,52.76
2024-02-19T16:51:48.152Z,52.58
2024-02-19T16:54:51.058Z,52.62
2024-02-19T16:57:53.930Z,52.69
2024-02-19T17:00:58.852Z,52.56
2024-02-19T17:04:01.965Z,52.48
2024-02-19T17:07:06.974Z,52.59
2024-02-19T17:10:13.346Z,52.58
2024-02-19T17:13:16.275Z,52.52
2024-02-19T17:16:20.632Z,52.54
2024-02-19T17:19:23.694Z,52.53
2024-02-19T17:22:27.269Z,52.42
2024-02-19T17:25:33.357Z,52.51
2024-02-19T17:28:36.639Z,52.47
2024-02-19T17:31:41.032Z,52.49
2024-02-19T17:34:44.133Z,52.52
2024-02-19T17:37:47.096Z,52.53
2024-02-19T17:40:49.889Z,52.49
2024-02-19T17:43:52.690Z,52.46
2024-02-19T17:46:56.843Z,52.52
2024-02-19T17:49:59.719Z,52.51
2024-02-19T17:53:02.660Z,52.50
2024-02-19T17:56:06.193Z,52.49
2024-02-19T17:59:10.835Z,52.65
2024-02-19T18:02:18.625Z,52.74
2024-02-19T18:05:21.526Z,52.69
2024-02-19T18:08:24.338Z,52.77
2024-02-19T18:11:27.240Z,52.71
2024-02-19T18:14:30.835Z,52.73
2024-02-19T18:17:35.309Z,52.88
2024-02-19T18:20:38.640Z,52.91
2024-02-19T18:23:41.760Z,52.79
2024-02-19T18:26:45.386Z,52.90
2024-02-19T18:29:48.269Z,52.77
2024-02-19T18:32:52.508Z,52.91
2024-02-19T18:35:55.578Z,52.87
2024-02-19T18:38:58.365Z,52.81
2024-02-19T18:42:01.224Z,52.76
2024-02-19T18:45:04.532Z,52.87
2024-02-19T18:48:09.685Z,52.71
2024-02-19T18:51:12.833Z,52.77
2024-02-19T18:54:16.514Z,52.69
2024-02-19T18:57:19.422Z,52.88
2024-02-19T19:00:22.826Z,52.81
2024-02-19T19:03:28.461Z,52.94
2024-02-19T19:06:32.522Z,52.84
2024-02-19T19:09:40.709Z,52.66
2024-02-19T19:12:43.504Z,52.70
2024-02-19T19:15:46.345Z,52.71
2024-02-19T19:18:51.838Z,52.70
2024-02-19T19:21:54.796Z,52.51
2024-02-19T19:24:57.657Z,52.68
2024-02-19T19:28:00.774Z,52.59
2024-02-19T19:31:03.700Z,52.59
2024-02-19T19:34:09.641Z,52.67
2024-02-19T19:37:13.147Z,52.66
2024-02-19T19:40:17.146Z,52.59
2024-02-19T19:43:20.131Z,52.56
2024-02-19T19:46:23.026Z,52.65
2024-02-19T19:49:27.249Z,52.70
2024-02-19T19:52:31.749Z,52.60
2024-02-19T19:55:36.138Z,52.55
2024-02-19T19:58:39.305Z,52.67
2024-02-19T20:01:42.277Z,52.55
2024-02-19T20:04:49.050Z,52.63
2024-02-19T20:07:51.947Z,52.60
2024-02-19T20:10:55.472Z,52.53
2024-02-19T20:13:58.409Z,52.62
2024-02-19T20:17:01.221Z,52.53
2024-02-19T20:20:06.634Z,52.59
2024-02-19T20:23:09.999Z,52.62
2024-02-19T20:26:12.797Z,52.67
2024-02-19T20:29:15.578Z,52.58
2024-02-19T20:32:20.821Z,52.68
2024-02-19T20:35:26.964Z,52.74
2024-02-19T20:38:29.931Z,52.76
2024-02-19T20:41:32.987Z,52.78
2024-02-19T20:44:36.746Z,52.80
2024-02-19T20:47:40.957Z,52.76
2024-02-19T20:50:45.509Z,52.83
2024-02-19T20:53:48.281Z,52.73
2024-02-19T20:56:51.135Z,52.74
2024-02-19T20:59:54.135Z,52.76
2024-02-19T21:02:57.002Z,52.91
2024-02-19T21:06:01.207Z,52.90
2024-02-19T21:09:04.229Z,52.87
2024-02-19T21:12:08.160Z,52.81
2024-02-19T21:15:12.103Z,52.47
2024-02-19T21:18:27.142Z,52.43
2024-02-19T21:21:35.848Z,52.35
2024-02-19T21:24:38.811Z,52.33
2024-02-19T21:27:41.599Z,52.51
2024-02-19T21:30:44.528Z,52.44
2024-02-19T21:33:47.522Z,52.51
2024-02-19T21:36:53.706Z,52.46
2024-02-19T21:39:56.968Z,52.41
2024-02-19T21:42:59.803Z,52.38
2024-02-19T21:46:02.587Z,52.44
2024-02-19T21:49:06.020Z,52.41
2024-02-19T21:52:10.275Z,52.34
2024-02-19T21:55:14.038Z,52.27
2024-02-19T21:58:16.925Z,52.29
2024-02-19T22:01:19.876Z,52.27
2024-02-19T22:04:22.781Z,52.19
2024-02-19T22:07:27.105Z,52.00
2024-02-19T22:10:29.932Z,52.09
2024-02-19T22:13:32.851Z,51.96
2024-02-19T22:16:35.745Z,52.00
2024-02-19T22:19:38.979Z,52.03
2024-02-19T22:22:43.441Z,51.94
2024-02-19T22:25:47.392Z,52.02
2024-02-19T22:28:50.200Z,51.90
2024-02-19T22:31:52.989Z,52.04
2024-02-19T22:34:55.837Z,52.15
2024-02-19T22:38:00.793Z,52.08
2024-02-19T22:41:03.748Z,52.20
2024-02-19T22:44:06.633Z,52.19
2024-02-19T22:47:09.560Z,52.13
2024-02-19T22:50:12.394Z,52.07
2024-02-19T22:53:18.389Z,52.07
2024-02-19T22:56:21.256Z,52.13
2024-02-19T22:59:25.260Z,52.20
2024-02-19T23:02:28.173Z,52.13
2024-02-19T23:05:31.135Z,52.17
2024-02-19T23:08:35.281Z,52.15
2024-02-19T23:11:39.110Z,52.25
2024-02-19T23:14:42.162Z,52.27
2024-02-19T23:17:45.118Z,52.27
2024-02-19T23:20:48.091Z,52.28
2024-02-19T23:23:52.236Z,52.29
2024-02-19T23:26:55.039Z,52.17
2024-02-19T23:29:57.828Z,52.23
2024-02-19T23:33:00.738Z,52.20
2024-02-19T23:36:03.612Z,52.14
2024-02-19T23:39:07.744Z,52.19
2024-02-19T23:42:11.126Z,52.20
2024-02-19T23:45:14.189Z,52.18
2024-02-19T23:48:17.552Z,52.20
2024-02-19T23:51:20.535Z,52.26
2024-02-19T23:54:24.861Z,52.25
2024-02-19T23:57:28.151Z,52.20
